Time;durP1;ratioP1;P1;durP2;ratioP2;P2;SDS_P1;SDS_P2;PMS_P1;PMS_P2;Temp;Humidity;BMP_temperature;BMP_pressure;BME280_temperature;BME280_humidity;BME280_pressure;Samples;Min_cycle;Max_cycle;Signal;HPM_P1;HPM_P2
2023/10/12 00:00:33;;;;;;;11.20;4.70;;;;;;;20.78;68.15;99604.31;12166539;19;20012;-81
2023/10/12 00:04:43;;;;;;;8.95;4.35;;;;;;;20.64;68.50;99607.22;12183876;19;20014;-80
2023/10/12 00:08:45;;;;;;;11.80;4.60;;;;;;;20.59;68.16;99589.75;12187010;19;20082;-81
2023/10/12 00:12:50;;;;;;;11.73;4.27;;;;;;;20.54;68.60;99587.91;12164814;19;20007;-79
2023/10/12 00:16:52;;;;;;;9.68;4.68;;;;;;;20.54;67.76;99585.09;12185525;19;20007;-80
2023/10/12 00:20:54;;;;;;;13.83;4.67;;;;;;;20.58;67.51;99580.50;12179621;19;20030;-78
2023/10/12 00:24:56;;;;;;;8.30;3.17;;;;;;;20.58;67.27;99574.91;12164406;19;20085;-79
2023/10/12 00:28:58;;;;;;;12.07;4.77;;;;;;;20.58;67.32;99577.69;12188045;19;20251;-81
2023/10/12 00:33:00;;;;;;;14.10;4.83;;;;;;;20.59;67.21;99579.38;12183447;19;20641;-80
2023/10/12 00:37:03;;;;;;;9.70;3.93;;;;;;;20.61;67.24;99573.44;12165482;19;21473;-78
2023/10/12 00:41:06;;;;;;;9.77;4.38;;;;;;;20.56;66.76;99568.00;12188223;19;20044;-79
2023/10/12 00:45:12;;;;;;;8.45;4.22;;;;;;;20.52;67.27;99572.53;12185024;19;20013;-80
2023/10/12 00:49:17;;;;;;;9.50;4.20;;;;;;;20.49;66.95;99572.06;12172430;19;20006;-80
2023/10/12 00:53:23;;;;;;;10.57;4.57;;;;;;;20.44;67.34;99572.19;12183233;19;20014;-80
2023/10/12 00:57:24;;;;;;;12.27;4.07;;;;;;;20.37;67.78;99569.00;12164363;19;20023;-80
2023/10/12 01:01:27;;;;;;;12.13;4.00;;;;;;;20.32;68.08;99569.16;12183400;19;20524;-79
2023/10/12 01:05:35;;;;;;;;;;;;;;;20.21;68.40;99567.78;12185034;19;20033;-79
2023/10/12 01:09:42;;;;;;;11.93;4.30;;;;;;;20.26;68.19;99564.84;12164583;19;19919;-78
2023/10/12 01:13:55;;;;;;;8.93;3.67;;;;;;;20.21;68.21;99562.19;12180222;19;20030;-79
2023/10/12 01:17:56;;;;;;;9.02;4.18;;;;;;;20.10;68.69;99555.19;12182817;19;20006;-81
2023/10/12 01:22:04;;;;;;;10.83;3.90;;;;;;;20.06;68.87;99546.63;12164406;19;20030;-80
2023/10/12 01:26:10;;;;;;;9.57;4.30;;;;;;;19.98;69.33;99547.38;12187514;19;20541;-79
2023/10/12 01:30:21;;;;;;;9.00;4.05;;;;;;;19.93;69.78;99551.16;12179081;19;20014;-81
2023/10/12 01:34:24;;;;;;;12.48;3.83;;;;;;;19.80;70.35;99563.22;12184920;19;20042;-80
2023/10/12 01:38:36;;;;;;;14.52;4.80;;;;;;;19.69;70.55;99554.25;12184057;19;20070;-79
2023/10/12 01:46:43;;;;;;;9.07;4.32;;;;;;;19.56;71.34;99558.72;12184799;19;20485;-81
2023/10/12 01:50:47;;;;;;;11.60;4.53;;;;;;;19.45;72.21;99551.69;12187539;19;20070;-78
2023/10/12 01:54:49;;;;;;;13.73;4.03;;;;;;;19.43;72.33;99556.81;12163397;19;20149;-80
2023/10/12 01:58:51;;;;;;;10.25;4.18;;;;;;;19.37;72.23;99558.06;12180431;19;20883;-79
2023/10/12 02:03:01;;;;;;;10.02;4.80;;;;;;;19.30;73.04;99549.25;12180062;19;20015;-78
2023/10/12 02:07:04;;;;;;;10.45;3.83;;;;;;;19.25;73.36;99557.78;12174662;19;21119;-80
2023/10/12 02:11:09;;;;;;;;;;;;;;;19.19;73.28;99559.03;12195220;19;20006;-79
2023/10/12 02:15:15;;;;;;;10.27;5.18;;;;;;;19.13;74.14;99552.75;12187918;19;19914;-79
2023/10/12 02:19:29;;;;;;;14.18;4.50;;;;;;;19.08;74.37;99541.66;12170174;19;20418;-78
2023/10/12 02:23:36;;;;;;;8.88;4.15;;;;;;;19.05;74.30;99554.28;12191645;19;20010;-81
2023/10/12 02:27:42;;;;;;;11.98;3.95;;;;;;;19.03;74.95;99550.16;12174744;19;20578;-79
2023/10/12 02:35:52;;;;;;;9.15;4.60;;;;;;;18.94;75.64;99564.00;12190416;19;20046;-77
2023/10/12 02:39:54;;;;;;;10.00;4.22;;;;;;;18.92;75.38;99566.31;12169372;19;20074;-79
2023/10/12 02:44:11;;;;;;;8.90;4.37;;;;;;;18.87;76.42;99580.38;12189699;19;20062;-78
2023/10/12 02:48:23;;;;;;;11.30;4.07;;;;;;;18.87;76.16;99592.34;12188787;19;20291;-78
2023/10/12 02:52:25;;;;;;;11.43;4.45;;;;;;;18.80;76.86;99602.28;12196621;19;20023;-78
2023/10/12 02:56:27;;;;;;;14.40;4.63;;;;;;;18.77;76.40;99602.88;12204138;19;20070;-77
2023/10/12 03:04:39;;;;;;;11.35;5.03;;;;;;;18.67;77.45;99599.13;12188762;19;20016;-80
2023/10/12 03:13:04;;;;;;;8.40;3.92;;;;;;;18.71;78.11;99610.53;12170464;19;20039;-78
2023/10/12 03:17:09;;;;;;;14.05;4.40;;;;;;;18.77;77.50;99603.75;12186876;19;20058;-79
2023/10/12 03:21:11;;;;;;;11.88;4.55;;;;;;;18.78;77.31;99616.56;12194743;19;20106;-82
2023/10/12 03:25:19;;;;;;;10.75;4.25;;;;;;;18.76;77.65;99593.69;12169175;19;20006;-79
2023/10/12 03:29:22;;;;;;;11.18;4.13;;;;;;;18.75;78.18;99582.84;12191889;19;20003;-82
2023/10/12 03:33:34;;;;;;;9.48;4.40;;;;;;;18.70;78.60;99613.63;12163713;19;20028;-80
2023/10/12 03:37:45;;;;;;;14.50;4.30;;;;;;;18.65;79.01;99603.41;12186417;19;20416;-81
2023/10/12 03:46:17;;;;;;;12.40;4.43;;;;;;;18.63;79.01;99605.66;12167434;19;20014;-79
2023/10/12 03:50:20;;;;;;;13.37;4.97;;;;;;;18.62;79.42;99595.59;12192539;19;20013;-78
2023/10/12 03:54:31;;;;;;;12.73;5.00;;;;;;;18.66;78.94;99605.03;12162449;19;20011;-78
2023/10/12 03:58:39;;;;;;;7.40;3.90;;;;;;;18.73;78.42;99615.78;12184467;19;20010;-79
2023/10/12 04:02:45;;;;;;;7.45;4.43;;;;;;;18.78;78.58;99629.69;12187514;19;20402;-79
2023/10/12 04:11:21;;;;;;;19.75;4.57;;;;;;;18.87;77.87;99631.44;12189320;19;20097;-79
2023/10/12 04:15:35;;;;;;;10.02;4.30;;;;;;;18.90;77.58;99630.81;12165112;19;20003;-78
2023/10/12 04:19:43;;;;;;;12.63;4.20;;;;;;;18.90;78.05;99625.25;12189917;19;21116;-78
2023/10/12 04:28:22;;;;;;;15.25;4.50;;;;;;;18.89;77.70;99634.75;12168356;19;21261;-79
2023/10/12 04:32:51;;;;;;;7.45;3.60;;;;;;;18.86;78.49;99637.34;12191336;19;20469;-79
2023/10/12 04:36:54;;;;;;;12.88;4.72;;;;;;;18.84;78.40;99645.19;12165098;19;20135;-79
2023/10/12 04:53:35;;;;;;;17.65;4.65;;;;;;;18.93;78.39;99660.09;12186840;19;20006;-80
2023/10/12 04:57:39;;;;;;;10.48;5.00;;;;;;;18.93;78.61;99676.03;12168679;19;20013;-79
2023/10/12 05:02:13;;;;;;;10.55;3.95;;;;;;;18.91;79.00;99659.56;12186897;19;20031;-78
2023/10/12 05:06:08;;;;;;;8.05;4.20;;;;;;;18.81;80.24;99637.44;12187471;19;20003;-80
2023/10/12 05:10:15;;;;;;;9.88;4.10;;;;;;;18.72;80.83;99644.84;12179617;19;20011;-83
2023/10/12 05:14:16;;;;;;;10.70;4.07;;;;;;;18.65;80.43;99654.44;12188433;19;19999;-82
2023/10/12 05:18:19;;;;;;;9.30;4.60;;;;;;;18.62;80.83;99645.84;12179733;19;20003;-82
2023/10/12 05:22:20;;;;;;;10.55;4.35;;;;;;;18.56;81.63;99653.50;12200051;19;20068;-80
2023/10/12 05:26:25;;;;;;;10.15;4.50;;;;;;;18.54;81.44;99650.19;12226656;19;20014;-82
2023/10/12 05:30:27;;;;;;;11.85;5.20;;;;;;;18.55;81.54;99637.88;12227331;19;20014;-81
2023/10/12 05:35:04;;;;;;;9.30;4.30;;;;;;;18.52;81.58;99644.06;12240959;19;20003;-81
2023/10/12 05:39:12;;;;;;;9.85;4.47;;;;;;;18.56;81.87;99658.22;12247260;19;20276;-81
2023/10/12 05:43:21;;;;;;;11.25;4.57;;;;;;;18.56;82.32;99642.34;12196554;19;20030;-80
2023/10/12 05:47:30;;;;;;;12.50;4.18;;;;;;;18.51;82.08;99659.16;12204236;19;20022;-80
2023/10/12 05:51:32;;;;;;;10.18;4.80;;;;;;;18.53;81.92;99698.75;12214495;19;20006;-81
2023/10/12 05:55:34;;;;;;;10.13;4.53;;;;;;;18.50;82.91;99682.63;12223283;19;20349;-82
2023/10/12 05:59:38;;;;;;;12.10;4.33;;;;;;;18.49;83.39;99675.38;12208737;19;20380;-81
2023/10/12 06:03:40;;;;;;;10.25;4.28;;;;;;;18.50;83.15;99659.47;12180096;19;21768;-81
2023/10/12 06:07:42;;;;;;;7.60;4.27;;;;;;;18.49;82.93;99639.09;12205669;19;20070;-81
2023/10/12 06:11:46;;;;;;;14.75;5.38;;;;;;;18.55;82.96;99617.53;12202733;19;20014;-83
2023/10/12 06:15:53;;;;;;;15.88;4.63;;;;;;;18.60;82.18;99665.69;12183441;19;20033;-81
2023/10/12 06:19:55;;;;;;;11.80;4.32;;;;;;;18.60;82.85;99723.47;12207763;19;20007;-81
2023/10/12 06:23:58;;;;;;;8.95;3.97;;;;;;;18.59;83.54;99693.91;12199922;19;20765;-81
2023/10/12 06:28:05;;;;;;;9.55;4.78;;;;;;;18.59;83.47;99735.75;12181593;19;20070;-80
2023/10/12 06:32:16;;;;;;;7.55;3.70;;;;;;;18.62;83.12;99758.31;12205107;19;20030;-81
2023/10/12 06:36:22;;;;;;;11.82;5.22;;;;;;;18.65;83.14;99770.84;12183435;19;20066;-81
2023/10/12 06:44:27;;;;;;;12.23;4.47;;;;;;;18.71;83.03;99774.34;12198093;19;20018;-80
2023/10/12 06:52:32;;;;;;;11.50;4.57;;;;;;;18.84;83.00;99793.16;12194691;19;20030;-80
2023/10/12 06:56:39;;;;;;;11.23;4.43;;;;;;;18.92;83.06;99781.28;12157286;19;20011;-80
2023/10/12 07:00:59;;;;;;;8.55;4.38;;;;;;;19.02;82.75;99783.91;12169220;19;20006;-80
2023/10/12 07:05:04;;;;;;;7.72;4.15;;;;;;;19.14;82.84;99766.66;12182149;19;20011;-80
2023/10/12 07:09:07;;;;;;;13.25;5.40;;;;;;;19.23;82.61;99789.13;12189184;19;20011;-80
2023/10/12 07:13:10;;;;;;;;;;;;;;;19.34;83.16;99785.00;12168174;19;20003;-80
2023/10/12 07:17:13;;;;;;;9.43;4.70;;;;;;;19.44;83.68;99773.59;12188846;19;20005;-80
2023/10/12 07:21:21;;;;;;;11.88;4.57;;;;;;;19.53;82.65;99788.50;12175063;19;20103;-79
2023/10/12 07:25:26;;;;;;;13.48;4.80;;;;;;;19.61;83.43;99784.19;12189820;19;20006;-80
2023/10/12 07:29:35;;;;;;;13.50;4.80;;;;;;;19.67;84.16;99768.97;12189825;19;20010;-80
2023/10/12 07:33:51;;;;;;;11.35;4.85;;;;;;;19.71;82.44;99789.56;12165724;19;20018;-80
2023/10/12 07:37:52;;;;;;;12.68;4.70;;;;;;;19.70;83.02;99787.09;12189210;19;20478;-80
2023/10/12 07:42:00;;;;;;;12.87;4.73;;;;;;;19.68;84.55;99775.41;12189339;19;20007;-81
2023/10/12 07:46:12;;;;;;;12.05;4.90;;;;;;;19.68;84.86;99789.38;12170243;19;20136;-80
2023/10/12 07:50:15;;;;;;;13.23;5.53;;;;;;;19.65;83.16;99790.81;12188774;19;20007;-80
2023/10/12 07:54:46;;;;;;;15.23;5.50;;;;;;;19.69;83.27;99807.78;12165153;19;20019;-80
2023/10/12 07:58:38;;;;;;;14.20;4.35;;;;;;;19.75;84.66;99764.63;12188011;19;20006;-80
2023/10/12 08:06:49;;;;;;;13.85;4.75;;;;;;;19.86;84.34;99754.06;12159354;19;20070;-80
2023/10/12 08:10:56;;;;;;;10.70;4.70;;;;;;;19.99;83.12;99751.25;12193057;19;20007;-80
2023/10/12 08:15:10;;;;;;;11.05;5.00;;;;;;;20.17;82.68;99771.00;12184880;19;20481;-80
2023/10/12 08:19:39;;;;;;;10.43;4.53;;;;;;;20.29;82.29;99774.06;12162795;19;20015;-80
2023/10/12 08:23:35;;;;;;;15.15;4.53;;;;;;;20.40;81.95;99806.22;12180712;19;20014;-80
2023/10/12 08:27:52;;;;;;;10.52;4.93;;;;;;;20.46;80.75;99804.16;12162444;19;20070;-81
2023/10/12 08:32:04;;;;;;;9.73;4.78;;;;;;;20.54;80.19;99811.00;12182509;19;20092;-80
2023/10/12 08:40:20;;;;;;;10.13;4.65;;;;;;;20.61;80.34;99812.25;12159376;19;20040;-79
2023/10/12 08:44:22;;;;;;;12.57;5.97;;;;;;;20.60;80.76;99804.97;12179946;19;20010;-80
2023/10/12 08:48:25;;;;;;;15.97;5.90;;;;;;;20.51;81.77;99778.03;12162885;19;20066;-81
2023/10/12 08:52:29;;;;;;;12.38;5.13;;;;;;;20.41;82.43;99785.53;12189217;19;21353;-80
2023/10/12 08:56:37;;;;;;;9.40;5.18;;;;;;;20.30;85.17;99778.50;12178764;19;20478;-80
2023/10/12 09:00:44;;;;;;;13.65;5.97;;;;;;;20.20;85.65;99789.94;12161746;19;20426;-80
2023/10/12 09:04:54;;;;;;;10.32;5.00;;;;;;;20.17;87.66;99787.78;12188196;19;20018;-80
2023/10/12 09:08:56;;;;;;;9.68;5.28;;;;;;;20.06;90.71;99783.53;12195070;19;20033;-80
2023/10/12 09:13:01;;;;;;;9.30;5.68;;;;;;;19.92;93.45;99805.94;12171541;19;20007;-81
2023/10/12 09:17:04;;;;;;;12.35;6.25;;;;;;;19.82;97.08;99806.16;12182647;19;20050;-79
2023/10/12 09:21:18;;;;;;;12.15;6.00;;;;;;;19.74;100.00;99802.09;12177777;19;20465;-79
2023/10/12 09:26:11;;;;;;;13.52;6.75;;;;;;;19.63;100.00;99809.00;12151299;19;20435;-79
2023/10/12 09:30:15;;;;;;;11.93;6.45;;;;;;;19.61;100.00;99811.31;12174222;19;20019;-78
2023/10/12 09:35:25;;;;;;;14.90;7.13;;;;;;;19.51;100.00;99820.69;12154114;19;20380;-79
2023/10/12 09:38:48;;;;;;;13.10;7.60;;;;;;;19.43;100.00;99815.84;12172813;19;20010;-78
2023/10/12 09:42:59;;;;;;;10.38;6.35;;;;;;;19.37;100.00;99819.88;12151180;19;20006;-78
2023/10/12 09:47:09;;;;;;;15.80;7.35;;;;;;;19.25;100.00;99823.97;12174054;19;20014;-79
2023/10/12 09:51:17;;;;;;;14.77;6.57;;;;;;;19.12;100.00;99822.78;12185420;19;20003;-79
2023/10/12 09:55:25;;;;;;;15.15;6.93;;;;;;;19.10;100.00;99819.50;12153381;19;20078;-78
2023/10/12 09:59:29;;;;;;;14.32;7.40;;;;;;;19.08;100.00;99816.19;12182639;19;20451;-78
2023/10/12 10:03:42;;;;;;;18.02;7.82;;;;;;;19.16;100.00;99827.81;12164451;19;20010;-80
2023/10/12 10:07:55;;;;;;;15.10;7.88;;;;;;;19.14;100.00;99816.91;12189650;19;20078;-80
2023/10/12 10:11:58;;;;;;;15.40;7.85;;;;;;;19.19;100.00;99816.00;12198712;19;20028;-80
2023/10/12 10:16:08;;;;;;;;;;;;;;;19.16;100.00;99811.03;12176165;19;20450;-80
2023/10/12 10:21:12;;;;;;;18.13;8.15;;;;;;;19.18;100.00;99822.72;12200287;19;19930;-80
2023/10/12 10:24:43;;;;;;;17.27;9.38;;;;;;;19.18;100.00;99825.50;12178412;19;20002;-82
2023/10/12 10:28:54;;;;;;;16.75;8.07;;;;;;;19.24;100.00;99827.06;12212225;19;20007;-82
2023/10/12 10:33:12;;;;;;;17.10;8.85;;;;;;;19.23;100.00;99829.03;12206918;19;20039;-81
2023/10/12 10:37:47;;;;;;;16.45;8.68;;;;;;;19.22;100.00;99824.59;12181440;19;20007;-82
2023/10/12 10:41:55;;;;;;;19.90;8.60;;;;;;;19.29;100.00;99819.44;12203697;19;20002;-84
2023/10/12 10:45:57;;;;;;;20.70;9.45;;;;;;;19.18;100.00;99820.75;12179562;19;20010;-82
2023/10/12 10:50:00;;;;;;;22.48;8.50;;;;;;;19.13;100.00;99818.88;12198618;19;20014;-81
2023/10/12 10:54:03;;;;;;;18.85;9.48;;;;;;;19.27;100.00;99824.47;12187402;19;20578;-82
2023/10/12 10:58:07;;;;;;;16.63;9.13;;;;;;;19.35;100.00;99809.00;12169146;19;19998;-80
2023/10/12 11:02:13;;;;;;;27.15;9.40;;;;;;;19.41;100.00;99795.75;12198056;19;20832;-82
2023/10/12 11:06:21;;;;;;;22.20;9.93;;;;;;;19.46;100.00;99816.06;12183300;19;20042;-81
2023/10/12 11:10:32;;;;;;;22.52;9.77;;;;;;;19.44;100.00;99809.09;12194916;19;20340;-82
2023/10/12 11:14:42;;;;;;;20.58;10.82;;;;;;;19.39;100.00;99810.03;12196892;19;20010;-80
2023/10/12 11:18:44;;;;;;;20.35;10.02;;;;;;;19.33;100.00;99798.13;12182904;19;20010;-80
2023/10/12 11:22:47;;;;;;;23.15;10.18;;;;;;;19.28;100.00;99792.63;12207319;19;20094;-80
2023/10/12 11:26:57;;;;;;;19.90;10.03;;;;;;;19.25;100.00;99787.66;12200416;19;20014;-80
2023/10/12 11:31:17;;;;;;;19.77;10.30;;;;;;;19.19;100.00;99786.13;12185826;19;20400;-80
2023/10/12 11:35:40;;;;;;;22.83;10.05;;;;;;;19.16;100.00;99771.94;12199697;19;20114;-79
2023/10/12 11:39:47;;;;;;;16.52;9.70;;;;;;;19.09;100.00;99767.56;12186042;19;20003;-80
2023/10/12 11:43:53;;;;;;;16.75;10.50;;;;;;;19.11;100.00;99768.09;12204493;19;20014;-80
2023/10/12 11:47:55;;;;;;;19.63;9.90;;;;;;;19.07;100.00;99769.84;12208011;19;19998;-80
2023/10/12 11:51:57;;;;;;;24.33;11.10;;;;;;;19.12;100.00;99777.28;12182291;19;20010;-79
2023/10/12 11:56:07;;;;;;;24.75;10.93;;;;;;;19.13;100.00;99782.59;12201681;19;20006;-80
2023/10/12 12:00:26;;;;;;;25.15;9.98;;;;;;;19.14;100.00;99775.03;12202871;19;20560;-81
2023/10/12 12:04:32;;;;;;;19.58;9.82;;;;;;;19.11;100.00;99758.88;12170902;19;20025;-80
2023/10/12 12:08:35;;;;;;;16.70;8.68;;;;;;;19.11;100.00;99754.13;12194548;19;20037;-82
2023/10/12 12:12:38;;;;;;;15.90;10.32;;;;;;;19.12;100.00;99752.97;12179380;19;20024;-82
2023/10/12 12:16:40;;;;;;;19.58;9.73;;;;;;;19.07;100.00;99739.13;12198396;19;20020;-80
2023/10/12 12:20:44;;;;;;;17.13;9.67;;;;;;;19.08;100.00;99734.38;12198919;19;20002;-81
2023/10/12 12:24:46;;;;;;;18.58;9.43;;;;;;;19.13;100.00;99748.25;12169729;19;20862;-81
2023/10/12 12:28:50;;;;;;;20.97;10.27;;;;;;;19.10;100.00;99754.44;12191322;19;20050;-81
2023/10/12 12:32:52;;;;;;;23.77;10.18;;;;;;;19.15;100.00;99754.31;12183535;19;20016;-80
2023/10/12 12:36:54;;;;;;;17.27;8.53;;;;;;;19.35;100.00;99739.13;12163831;19;20021;-80
2023/10/12 12:40:57;;;;;;;21.65;11.32;;;;;;;19.53;100.00;99724.22;12191510;19;20007;-79
2023/10/12 12:44:59;;;;;;;20.10;8.98;;;;;;;19.67;100.00;99715.88;12178616;19;20482;-81
2023/10/12 12:49:01;;;;;;;19.38;9.98;;;;;;;19.78;100.00;99720.09;12169129;19;20374;-82
2023/10/12 12:53:06;;;;;;;;;;;;;;;19.69;100.00;99712.75;12182765;19;20007;-79
2023/10/12 12:57:10;;;;;;;19.98;10.55;;;;;;;19.64;100.00;99705.28;12177838;19;19924;-82
2023/10/12 13:01:13;;;;;;;18.00;9.85;;;;;;;19.65;100.00;99717.31;12153050;19;20479;-83
2023/10/12 13:05:15;;;;;;;21.38;11.13;;;;;;;19.58;100.00;99700.94;12174044;19;20426;-82
2023/10/12 13:09:28;;;;;;;25.37;12.00;;;;;;;19.55;100.00;99705.19;12166965;19;20021;-82
2023/10/12 13:13:33;;;;;;;23.50;9.63;;;;;;;19.51;100.00;99692.13;12172088;19;20010;-79
2023/10/12 13:17:38;;;;;;;25.95;10.40;;;;;;;19.48;100.00;99690.81;12183384;19;21569;-81
2023/10/12 13:21:44;;;;;;;17.98;10.30;;;;;;;19.35;100.00;99698.06;12159427;19;20030;-78
2023/10/12 13:25:46;;;;;;;19.88;10.60;;;;;;;19.28;100.00;99680.06;12187145;19;20007;-83
2023/10/12 13:29:49;;;;;;;20.95;11.00;;;;;;;19.27;100.00;99681.19;12183199;19;20032;-79
2023/10/12 13:33:51;;;;;;;20.48;11.45;;;;;;;19.26;100.00;99680.38;12147379;19;20017;-80
2023/10/12 13:37:55;;;;;;;;;;;;;;;19.20;100.00;99689.16;12171358;19;21363;-79
2023/10/12 13:41:56;;;;;;;21.10;11.95;;;;;;;19.20;100.00;99686.38;12172150;19;19915;-81
2023/10/12 13:46:06;;;;;;;24.63;12.13;;;;;;;19.22;100.00;99682.13;12151429;19;20074;-79
2023/10/12 13:50:12;;;;;;;22.02;11.00;;;;;;;19.10;100.00;99691.03;12171956;19;20044;-83
2023/10/12 13:54:14;;;;;;;24.92;12.90;;;;;;;18.95;100.00;99699.72;12168090;19;20011;-81
2023/10/12 13:58:16;;;;;;;24.67;12.23;;;;;;;18.89;100.00;99714.91;12146459;19;20473;-82
2023/10/12 14:02:20;;;;;;;27.25;12.70;;;;;;;18.85;100.00;99713.84;12182063;19;20068;-82
2023/10/12 14:06:23;;;;;;;33.00;16.80;;;;;;;18.76;100.00;99708.13;12160068;19;20074;-81
2023/10/12 14:10:29;;;;;;;25.55;13.20;;;;;;;18.75;100.00;99705.66;12186417;19;20049;-81
2023/10/12 14:14:31;;;;;;;26.73;15.02;;;;;;;18.76;100.00;99687.78;12172861;19;20023;-82
2023/10/12 14:18:33;;;;;;;25.20;13.47;;;;;;;18.76;100.00;99691.38;12149971;19;20482;-82
2023/10/12 14:22:36;;;;;;;24.37;13.17;;;;;;;18.73;100.00;99691.16;12172522;19;20011;-81
2023/10/12 14:26:38;;;;;;;23.17;12.50;;;;;;;18.71;100.00;99696.19;12183099;19;20017;-81
2023/10/12 14:30:40;;;;;;;26.08;11.70;;;;;;;18.72;100.00;99687.53;12156053;19;21947;-80
2023/10/12 14:34:42;;;;;;;23.30;12.33;;;;;;;18.75;100.00;99683.34;12164023;19;20613;-82
2023/10/12 14:38:45;;;;;;;25.73;13.90;;;;;;;18.79;100.00;99685.19;12173799;19;21420;-80
2023/10/12 14:42:46;;;;;;;;;;;;;;;18.86;100.00;99682.03;12151640;19;20006;-84
2023/10/12 14:46:50;;;;;;;29.10;12.23;;;;;;;18.92;100.00;99677.13;12184909;19;19925;-80
2023/10/12 14:51:01;;;;;;;24.65;12.50;;;;;;;18.93;100.00;99676.03;12179509;19;20090;-83
2023/10/12 14:55:05;;;;;;;22.35;12.45;;;;;;;18.92;100.00;99678.00;12153734;19;20089;-79
2023/10/12 14:59:08;;;;;;;25.15;12.90;;;;;;;18.95;100.00;99671.78;12177842;19;20006;-80
2023/10/12 15:03:15;;;;;;;22.40;12.45;;;;;;;18.98;100.00;99668.38;12178229;19;20038;-81
2023/10/12 15:07:17;;;;;;;25.45;12.43;;;;;;;19.00;100.00;99668.06;12156358;19;20007;-80
2023/10/12 15:11:19;;;;;;;28.08;12.20;;;;;;;19.02;100.00;99674.16;12173523;19;20385;-81
2023/10/12 15:15:27;;;;;;;25.97;13.43;;;;;;;18.99;100.00;99670.03;12148570;19;20011;-81
2023/10/12 15:19:31;;;;;;;27.27;13.48;;;;;;;18.99;100.00;99655.25;12174734;19;20015;-80
2023/10/12 15:23:34;;;;;;;24.48;12.55;;;;;;;18.96;100.00;99656.69;12177695;19;20021;-82
2023/10/12 15:27:37;;;;;;;23.90;13.45;;;;;;;18.96;100.00;99662.25;12174808;19;21223;-79
2023/10/12 15:31:39;;;;;;;22.45;12.77;;;;;;;18.93;100.00;99656.47;12200282;19;20023;-78
2023/10/12 15:35:44;;;;;;;;;;;;;;;18.89;100.00;99667.44;12196368;19;20005;-80
2023/10/12 15:39:49;;;;;;;23.95;12.50;;;;;;;18.85;100.00;99667.22;12163100;19;19930;-82
2023/10/12 15:43:51;;;;;;;23.08;11.57;;;;;;;18.83;100.00;99657.50;12183186;19;20037;-80
2023/10/12 15:47:57;;;;;;;23.60;12.57;;;;;;;18.78;100.00;99661.22;12185810;19;20533;-78
2023/10/12 15:52:00;;;;;;;24.38;12.70;;;;;;;18.78;100.00;99661.22;12156395;19;20005;-78
2023/10/12 15:56:03;;;;;;;26.63;12.45;;;;;;;18.79;100.00;99670.41;12178412;19;20033;-79
2023/10/12 16:00:08;;;;;;;25.17;12.77;;;;;;;18.78;100.00;99668.75;12179856;19;20418;-79
2023/10/12 16:04:10;;;;;;;23.45;12.82;;;;;;;18.76;100.00;99674.63;12161538;19;20002;-81
2023/10/12 16:08:14;;;;;;;24.10;13.00;;;;;;;18.67;100.00;99688.44;12180588;19;20014;-80
2023/10/12 16:12:20;;;;;;;24.70;13.10;;;;;;;18.64;100.00;99686.25;12157014;19;20002;-77
2023/10/12 16:16:22;;;;;;;21.92;12.07;;;;;;;18.60;100.00;99692.78;12171032;19;20029;-79
2023/10/12 16:20:25;;;;;;;26.80;12.50;;;;;;;18.60;100.00;99692.78;12176570;19;20473;-79
2023/10/12 16:24:28;;;;;;;22.40;12.43;;;;;;;18.56;100.00;99692.56;12153328;19;20665;-79
2023/10/12 16:28:30;;;;;;;26.05;13.07;;;;;;;18.51;100.00;99698.22;12182202;19;20003;-78
2023/10/12 16:32:31;;;;;;;24.10;13.17;;;;;;;18.48;100.00;99693.25;12175408;19;20339;-79
2023/10/12 16:36:33;;;;;;;24.93;12.97;;;;;;;18.44;100.00;99701.41;12157121;19;20007;-78
2023/10/12 16:40:36;;;;;;;25.10;13.37;;;;;;;18.38;100.00;99718.53;12177439;19;20081;-80
2023/10/12 16:44:37;;;;;;;30.02;14.32;;;;;;;18.33;100.00;99721.41;12177729;19;20023;-79
2023/10/12 16:48:39;;;;;;;27.02;14.38;;;;;;;18.29;100.00;99717.56;12157359;19;20105;-77
2023/10/12 16:52:41;;;;;;;25.30;13.40;;;;;;;18.26;100.00;99707.84;12175605;19;20673;-78
2023/10/12 16:56:43;;;;;;;26.20;13.35;;;;;;;18.25;100.00;99708.97;12176938;19;20330;-79
2023/10/12 17:00:45;;;;;;;28.75;14.13;;;;;;;18.24;100.00;99696.19;12154153;19;20003;-76
2023/10/12 17:04:59;;;;;;;32.95;15.98;;;;;;;18.24;100.00;99700.94;12171231;19;20461;-78
2023/10/12 17:09:01;;;;;;;33.45;16.17;;;;;;;18.24;100.00;99701.75;12174767;19;20358;-78
2023/10/12 17:13:03;;;;;;;30.90;14.40;;;;;;;18.20;100.00;99704.31;12147692;19;20035;-79
2023/10/12 17:17:05;;;;;;;27.73;14.83;;;;;;;18.22;100.00;99709.59;12167379;19;20010;-80
2023/10/12 17:21:07;;;;;;;30.42;15.07;;;;;;;18.20;100.00;99706.25;12172147;19;20032;-77
2023/10/12 17:25:10;;;;;;;31.10;15.20;;;;;;;18.18;100.00;99705.75;12154634;19;20103;-77
2023/10/12 17:29:11;;;;;;;;;;;;;;;18.15;100.00;99720.31;12177631;19;20412;-77
2023/10/12 17:33:14;;;;;;;24.90;13.52;;;;;;;18.15;100.00;99717.53;12173303;19;19922;-80
2023/10/12 17:37:17;;;;;;;34.30;15.50;;;;;;;18.12;100.00;99721.75;12155278;19;20007;-79
2023/10/12 17:41:20;;;;;;;31.02;14.20;;;;;;;18.09;100.00;99715.94;12184698;19;20030;-79
2023/10/12 17:45:22;;;;;;;28.02;13.80;;;;;;;18.07;100.00;99719.00;12161858;19;20014;-80
2023/10/12 17:49:24;;;;;;;31.48;13.55;;;;;;;18.00;100.00;99729.72;12181340;19;20035;-80
2023/10/12 17:53:27;;;;;;;31.33;14.70;;;;;;;17.98;100.00;99729.19;12183592;19;20034;-78
2023/10/12 17:57:29;;;;;;;25.90;13.68;;;;;;;17.93;100.00;99729.25;12164991;19;20006;-80
2023/10/12 18:01:32;;;;;;;22.40;11.45;;;;;;;17.89;100.00;99737.41;12187586;19;20007;-80
2023/10/12 18:05:35;;;;;;;21.55;12.32;;;;;;;17.85;100.00;99750.28;12197059;19;20019;-78
2023/10/12 18:09:37;;;;;;;24.48;11.82;;;;;;;17.83;100.00;99746.97;12169580;19;20016;-77
2023/10/12 18:13:40;;;;;;;22.70;11.05;;;;;;;17.84;100.00;99761.72;12184705;19;20003;-78
2023/10/12 18:17:42;;;;;;;23.23;12.20;;;;;;;17.81;100.00;99768.72;12180175;19;20010;-78
2023/10/12 18:21:44;;;;;;;21.55;12.02;;;;;;;17.79;100.00;99767.34;12168902;19;20671;-79
2023/10/12 18:25:46;;;;;;;21.50;12.40;;;;;;;17.80;100.00;99782.97;12192797;19;20472;-78
2023/10/12 18:29:48;;;;;;;18.75;11.40;;;;;;;17.83;100.00;99779.59;12187946;19;20011;-79
2023/10/12 18:33:50;;;;;;;22.73;10.82;;;;;;;17.84;100.00;99758.94;12171942;19;20007;-78
2023/10/12 18:37:52;;;;;;;23.03;11.03;;;;;;;17.82;100.00;99756.47;12196651;19;20022;-80
2023/10/12 18:41:57;;;;;;;28.90;11.30;;;;;;;17.83;100.00;99769.25;12194357;19;20022;-80
2023/10/12 18:45:59;;;;;;;20.15;10.27;;;;;;;17.83;100.00;99762.88;12187025;19;20120;-79
2023/10/12 18:50:01;;;;;;;19.80;10.27;;;;;;;17.85;100.00;99767.00;12189394;19;20362;-78
2023/10/12 18:54:12;;;;;;;18.05;9.75;;;;;;;17.89;100.00;99764.44;12202195;19;21390;-78
2023/10/12 18:58:14;;;;;;;21.27;10.15;;;;;;;17.91;100.00;99765.00;12205812;19;20010;-78
2023/10/12 19:02:16;;;;;;;18.67;9.23;;;;;;;17.93;100.00;99765.50;12184851;19;20409;-78
2023/10/12 19:06:18;;;;;;;23.10;10.37;;;;;;;17.94;100.00;99753.25;12209760;19;20007;-78
2023/10/12 19:10:20;;;;;;;18.45;9.60;;;;;;;17.93;100.00;99746.81;12206179;19;20002;-78
2023/10/12 19:14:22;;;;;;;20.93;10.00;;;;;;;17.95;100.00;99754.88;12182945;19;20002;-78
2023/10/12 19:18:24;;;;;;;21.42;9.57;;;;;;;17.97;100.00;99752.63;12204692;19;20474;-79
2023/10/12 19:22:26;;;;;;;17.00;8.97;;;;;;;17.95;100.00;99760.47;12206763;19;20006;-80
2023/10/12 19:26:27;;;;;;;18.10;9.18;;;;;;;17.96;100.00;99764.91;12208943;19;20508;-77
2023/10/12 19:30:30;;;;;;;22.35;9.38;;;;;;;17.98;100.00;99777.41;12203874;19;20597;-78
2023/10/12 19:34:33;;;;;;;19.83;9.02;;;;;;;18.01;100.00;99767.63;12183406;19;20368;-77
2023/10/12 19:38:40;;;;;;;18.58;9.40;;;;;;;18.00;100.00;99785.50;12205505;19;20009;-77
2023/10/12 19:42:44;;;;;;;20.33;8.63;;;;;;;17.99;100.00;99779.09;12211455;19;20842;-78